This is the latest recevied weather packets stored in our database for station/object HS1AXC-1. If no packets are shown the sender has not sent any weather packets the latest 10 day(s).
| Time | Temp. | Humidity | Pressure | Rain* | Wind** | Luminosity | Snow |
|---|---|---|---|---|---|---|---|
| 1777652047 | 33.33° C | 84% | 1011 hPa | - | - | 0 W/m² | - |
| 1777651425 | 33.89° C | 82% | 1011 hPa | - | - | 0 W/m² | - |
| 1777650803 | 32.78° C | 86% | 1011 hPa | - | - | 0 W/m² | - |
| 1777650181 | 33.89° C | 81% | 1011 hPa | - | - | 0 W/m² | - |
| 1777649559 | 33.33° C | 84% | 1011 hPa | - | - | 0 W/m² | - |
| 1777648937 | 33.33° C | 82% | 1010 hPa | - | - | 0 W/m² | - |
| 1777648315 | 33.89° C | 77% | 1010 hPa | - | - | 0 W/m² | - |
| 1777647693 | 33.33° C | 78% | 1010 hPa | - | - | 0 W/m² | - |
| 1777647071 | 33.33° C | 76% | 1010 hPa | - | - | 0 W/m² | - |
| 1777646449 | 33.89° C | 76% | 1010 hPa | - | - | 0 W/m² | - |
| 1777646028 | 33.33° C | 78% | 1010 hPa | - | - | 0 W/m² | - |
| 1777645406 | 33.33° C | 78% | 1010 hPa | - | - | 0 W/m² | - |
| 1777644784 | 32.78° C | 80% | 1010 hPa | - | - | 0 W/m² | - |
| 1777644162 | 33.89° C | 75% | 1009 hPa | - | - | 0 W/m² | - |
| 1777643540 | 33.33° C | 76% | 1009 hPa | - | - | 0 W/m² | - |
| 1777642918 | 33.89° C | 74% | 1009 hPa | - | - | 0 W/m² | - |
| 1777642295 | 32.78° C | 80% | 1009 hPa | - | - | 0 W/m² | - |
| 1777641673 | 33.89° C | 78% | 1009 hPa | - | - | 0 W/m² | - |
| 1777641051 | 33.89° C | 78% | 1009 hPa | - | - | 0 W/m² | - |
| 1777640429 | 33.33° C | 79% | 1009 hPa | - | - | 0 W/m² | - |
| 1777639807 | 33.33° C | 78% | 1008 hPa | - | - | 0 W/m² | - |
| 1777639185 | 34.44° C | 72% | 1008 hPa | - | - | 0 W/m² | - |
| 1777638563 | 33.89° C | 74% | 1008 hPa | - | - | 0 W/m² | - |
| 1777637941 | 33.33° C | 73% | 1008 hPa | - | - | 0 W/m² | - |
| 1777637319 | 34.44° C | 67% | 1008 hPa | - | - | 0 W/m² | - |
* Rain since midnight (hover to see other rain measurements)
** Current wind speed in m/s (hover to see current wind gust speed)